Time;durP1;ratioP1;P1;durP2;ratioP2;P2;SDS_P1;SDS_P2;PMS_P1;PMS_P2;Temp;Humidity;BMP_temperature;BMP_pressure;BME280_temperature;BME280_humidity;BME280_pressure;Samples;Min_cycle;Max_cycle;Signal;HPM_P1;HPM_P2
2022/11/17 09:54:39;;;;;;;5.93;3.97;;;;;;;10.24;100.00;96864.66;5109511;28;20566;-80
2022/11/17 09:57:19;;;;;;;4.20;3.47;;;;;;;10.75;100.00;96858.94;5139660;27;39525;-78
2022/11/17 09:59:52;;;;;;;5.87;3.33;;;;;;;11.10;100.00;96848.44;5106095;28;41813;-78
2022/11/17 10:02:19;;;;;;;3.93;3.53;;;;;;;11.33;100.00;96858.63;5090886;28;41988;-78
2022/11/17 10:04:47;;;;;;;4.47;3.37;;;;;;;11.50;100.00;96849.84;5108926;28;42143;-78
2022/11/17 10:07:15;;;;;;;3.93;3.03;;;;;;;11.65;100.00;96850.97;5142443;27;39878;-77
2022/11/17 10:09:46;;;;;;;4.17;3.20;;;;;;;11.88;100.00;96854.88;5108964;28;41934;-78
2022/11/17 10:12:18;;;;;;;4.60;3.30;;;;;;;12.06;99.21;96846.91;5124626;27;44396;-78
2022/11/17 10:14:48;;;;;;;4.77;3.00;;;;;;;12.29;98.23;96860.50;5104970;28;41861;-78
2022/11/17 10:17:16;;;;;;;4.30;3.10;;;;;;;12.50;96.78;96858.31;5124900;27;38838;-78
2022/11/17 10:19:45;;;;;;;3.43;3.13;;;;;;;12.62;95.33;96842.94;5107757;28;42607;-78
2022/11/17 10:22:20;;;;;;;2.90;2.70;;;;;;;12.99;94.70;96842.63;5090603;28;42846;-77
2022/11/17 10:24:54;;;;;;;3.80;2.60;;;;;;;14.34;91.17;96848.53;5124844;27;41256;-78
2022/11/17 10:27:24;;;;;;;3.10;2.80;;;;;;;14.90;89.24;96860.06;5105044;28;39655;-78
2022/11/17 10:30:02;;;;;;;3.73;2.70;;;;;;;14.81;88.30;96855.78;5124771;27;42038;-79
2022/11/17 10:32:32;;;;;;;4.07;3.03;;;;;;;14.72;87.13;96858.44;5106245;28;43686;-77
2022/11/17 10:35:14;;;;;;;3.73;3.00;;;;;;;14.68;87.39;96851.00;5090114;28;43581;-78
2022/11/17 10:37:44;;;;;;;3.40;2.70;;;;;;;14.62;87.21;96857.81;5105222;28;40587;-78
2022/11/17 10:40:19;;;;;;;3.97;3.00;;;;;;;14.45;86.82;96850.88;5107669;28;41557;-78
2022/11/17 10:43:03;;;;;;;2.97;2.50;;;;;;;14.33;87.29;96860.19;5105235;28;44213;-77
2022/11/17 10:45:31;;;;;;;3.17;2.87;;;;;;;14.16;86.47;96845.19;5124551;27;40820;-78
2022/11/17 10:48:10;;;;;;;4.40;2.87;;;;;;;13.83;84.96;96821.25;5108049;28;39941;-78
2022/11/17 10:50:37;;;;;;;4.70;2.77;;;;;;;13.83;85.50;96834.56;5107123;28;43349;-78
2022/11/17 10:53:28;;;;;;;3.53;1.97;;;;;;;13.85;85.17;96834.38;5106116;28;41809;-78
2022/11/17 10:56:14;;;;;;;3.70;1.70;;;;;;;14.01;85.22;96832.56;5104139;28;43086;-78
2022/11/17 10:58:56;;;;;;;3.33;2.20;;;;;;;14.08;85.36;96821.25;5087114;28;38510;-78
2022/11/17 11:01:29;;;;;;;3.10;2.70;;;;;;;14.09;85.14;96828.25;5089652;28;42331;-78
2022/11/17 11:03:57;;;;;;;3.90;3.30;;;;;;;14.21;85.35;96832.22;5103297;28;41687;-78
2022/11/17 11:06:26;;;;;;;5.53;3.40;;;;;;;14.29;85.02;96829.53;5076242;28;42396;-78
2022/11/17 11:08:58;;;;;;;4.57;3.20;;;;;;;14.36;84.97;96822.53;5094169;28;40061;-78
2022/11/17 11:11:43;;;;;;;4.53;3.60;;;;;;;14.35;84.65;96823.53;5090269;28;41961;-78
2022/11/17 11:14:26;;;;;;;6.07;3.40;;;;;;;14.09;84.94;96796.31;5093113;28;42154;-78
2022/11/17 11:16:55;;;;;;;6.03;2.77;;;;;;;14.14;85.02;96804.59;5076035;28;43102;-78
2022/11/17 11:19:22;;;;;;;4.37;2.87;;;;;;;14.10;84.65;96812.09;5093006;28;39196;-78
2022/11/17 11:22:03;;;;;;;6.10;2.43;;;;;;;14.11;85.04;96826.22;5075784;28;40774;-77
2022/11/17 11:24:38;;;;;;;3.40;2.60;;;;;;;14.07;85.41;96824.91;5109757;28;45164;-78
2022/11/17 11:27:24;;;;;;;3.10;1.70;;;;;;;14.00;85.00;96827.41;5093101;28;41304;-78
2022/11/17 11:30:01;;;;;;;6.50;2.10;;;;;;;13.95;85.50;96821.75;5091171;28;40638;-78
2022/11/17 11:32:40;;;;;;;3.10;2.03;;;;;;;13.90;85.25;96813.44;5110055;28;41935;-78
2022/11/17 11:35:47;;;;;;;3.73;1.60;;;;;;;13.95;85.10;96833.25;5124068;27;43737;-77
2022/11/17 11:38:29;;;;;;;3.57;2.10;;;;;;;13.94;84.61;96831.56;5034776;28;41100;-79
2022/11/17 11:41:10;;;;;;;4.07;1.90;;;;;;;13.95;84.24;96843.06;5105512;28;39062;-78
2022/11/17 11:43:48;;;;;;;3.07;1.77;;;;;;;13.93;84.56;96845.03;5126393;27;42027;-78
2022/11/17 11:46:20;;;;;;;1.97;1.70;;;;;;;13.89;83.97;96839.22;5123879;27;43567;-79
2022/11/17 11:48:51;;;;;;;2.20;1.90;;;;;;;13.85;83.85;96832.53;5093120;28;42300;-78
2022/11/17 11:51:22;;;;;;;2.90;1.40;;;;;;;13.70;83.84;96820.09;5092907;28;38940;-78
2022/11/17 11:53:54;;;;;;;3.03;1.33;;;;;;;13.75;83.64;96842.53;5091817;28;40779;-78
2022/11/17 11:56:27;;;;;;;3.77;1.20;;;;;;;13.70;83.94;96839.53;5092536;28;42577;-79
2022/11/17 11:59:02;;;;;;;4.47;1.30;;;;;;;13.61;83.67;96832.53;5092410;28;42048;-78
2022/11/17 12:01:37;;;;;;;2.50;1.30;;;;;;;13.69;83.43;96843.19;5092558;28;40077;-79
2022/11/17 12:04:19;;;;;;;3.03;1.10;;;;;;;13.38;82.97;96799.59;5092271;28;43200;-79
2022/11/17 12:06:55;;;;;;;3.97;2.00;;;;;;;13.80;83.12;96850.00;5089660;28;42485;-78
2022/11/17 12:09:45;;;;;;;3.40;1.10;;;;;;;13.78;82.58;96842.19;5089705;28;42103;-79
2022/11/17 12:12:15;;;;;;;3.07;1.27;;;;;;;13.89;81.93;96839.22;5075192;28;39117;-78
2022/11/17 12:15:11;;;;;;;1.87;1.07;;;;;;;14.07;79.64;96848.88;5109753;28;41513;-78
2022/11/17 12:17:59;;;;;;;3.07;0.93;;;;;;;14.22;79.12;96850.66;5108112;28;41415;-79
2022/11/17 12:20:51;;;;;;;3.80;1.30;;;;;;;14.64;77.54;96855.81;5075597;28;41343;-79
2022/11/17 12:23:26;;;;;;;1.67;1.17;;;;;;;16.62;72.24;96881.06;5092227;28;40876;-79
2022/11/17 12:25:56;;;;;;;2.13;1.00;;;;;;;16.42;70.50;96882.56;5123356;27;41468;-78
2022/11/17 12:28:34;;;;;;;1.30;0.70;;;;;;;16.42;70.24;96887.91;5075182;28;41754;-78
2022/11/17 12:31:05;;;;;;;4.37;1.20;;;;;;;16.94;67.32;96889.78;5123174;27;43031;-80
2022/11/17 12:34:08;;;;;;;1.30;0.80;;;;;;;17.75;64.39;96889.63;5091915;28;39108;-78
2022/11/17 12:36:36;;;;;;;0.90;0.60;;;;;;;19.53;58.66;96919.81;5071895;28;40692;-80
2022/11/17 12:39:06;;;;;;;2.83;0.60;;;;;;;19.60;55.54;96936.75;5109102;28;43068;-78
2022/11/17 12:42:06;;;;;;;1.23;0.70;;;;;;;21.65;52.52;96943.19;5109055;28;43440;-79
2022/11/17 12:44:50;;;;;;;1.40;0.80;;;;;;;23.14;50.17;96949.81;5074551;28;39043;-79
2022/11/17 12:47:21;;;;;;;0.80;0.70;;;;;;;23.82;46.80;96974.09;5108267;28;40895;-78
2022/11/17 12:50:05;;;;;;;1.07;0.60;;;;;;;24.08;45.59;96972.97;5074609;28;43006;-79
2022/11/17 12:52:40;;;;;;;0.80;0.57;;;;;;;24.06;45.69;96966.94;5090979;28;41436;-79
2022/11/17 12:55:19;;;;;;;1.37;0.70;;;;;;;22.74;47.18;96930.41;5125165;27;39714;-79
2022/11/17 12:57:52;;;;;;;2.40;0.80;;;;;;;22.18;48.17;96965.41;5089947;28;42651;-78
2022/11/17 13:00:22;;;;;;;1.23;0.60;;;;;;;21.59;49.29;96960.22;5108173;28;41704;-79
2022/11/17 13:03:05;;;;;;;1.00;0.70;;;;;;;20.97;48.93;96964.19;5090680;28;41900;-78
2022/11/17 13:05:32;;;;;;;1.77;0.70;;;;;;;20.05;50.26;96959.44;5091031;28;38272;-78
2022/11/17 13:08:20;;;;;;;1.60;0.90;;;;;;;19.55;52.58;96952.63;5125834;27;41808;-78
2022/11/17 13:10:47;;;;;;;2.30;0.87;;;;;;;19.12;53.58;96938.50;5092590;28;46382;-78
2022/11/17 13:13:18;;;;;;;1.77;0.90;;;;;;;18.95;54.94;96943.34;5074273;28;43488;-79
2022/11/17 13:15:49;;;;;;;1.13;0.70;;;;;;;18.73;54.31;96944.41;5089564;28;40822;-78
2022/11/17 13:18:31;;;;;;;2.40;0.70;;;;;;;18.50;56.26;96934.69;5124115;27;42747;-79
2022/11/17 13:21:00;;;;;;;1.23;0.70;;;;;;;18.31;56.11;96938.81;5091538;28;42052;-78
2022/11/17 13:23:29;;;;;;;2.33;0.80;;;;;;;18.04;56.78;96934.25;5092398;28;42108;-78
2022/11/17 13:26:11;;;;;;;3.23;0.80;;;;;;;17.74;58.00;96932.63;5074294;28;39139;-79
2022/11/17 13:28:39;;;;;;;1.70;0.70;;;;;;;17.46;58.12;96938.63;5124045;27;41702;-78
2022/11/17 13:31:12;;;;;;;1.10;0.77;;;;;;;17.17;59.14;96936.81;5091147;28;41681;-78
2022/11/17 13:33:41;;;;;;;1.40;0.80;;;;;;;16.87;60.43;96932.44;5107964;28;42420;-78
2022/11/17 13:36:17;;;;;;;1.73;0.90;;;;;;;16.60;60.71;96930.31;5092647;28;40045;-78
2022/11/17 13:38:49;;;;;;;3.80;0.97;;;;;;;16.27;62.41;96919.06;5107966;28;41592;-78
2022/11/17 13:41:19;;;;;;;4.23;1.23;;;;;;;15.91;64.27;96914.31;5092304;28;42462;-78
2022/11/17 13:43:48;;;;;;;3.30;1.10;;;;;;;15.70;64.87;96917.59;5074069;28;43439;-78
2022/11/17 13:46:15;;;;;;;2.43;1.13;;;;;;;15.45;65.97;96892.84;5092406;28;41115;-78
2022/11/17 13:48:46;;;;;;;2.90;1.33;;;;;;;15.37;66.54;96890.22;5090853;28;41565;-78
2022/11/17 13:51:28;;;;;;;3.70;1.37;;;;;;;15.10;67.29;96883.50;5108446;28;42862;-78
2022/11/17 13:53:59;;;;;;;3.77;1.33;;;;;;;15.11;67.90;96905.66;5073866;28;42482;-78
2022/11/17 13:56:33;;;;;;;1.33;1.00;;;;;;;15.02;68.20;96912.00;5091518;28;39747;-78
2022/11/17 13:59:02;;;;;;;6.07;2.10;;;;;;;14.90;68.81;96897.38;5090917;28;40798;-78
2022/11/17 14:01:31;;;;;;;4.37;1.50;;;;;;;14.79;68.76;96903.91;5090925;28;43573;-78
2022/11/17 14:04:16;;;;;;;2.47;1.17;;;;;;;14.78;69.16;96914.72;5107340;28;41100;-77
2022/11/17 14:06:55;;;;;;;4.30;1.90;;;;;;;14.62;69.73;96921.75;5090836;28;38900;-79
2022/11/17 14:09:24;;;;;;;5.07;1.80;;;;;;;14.39;70.42;96904.75;5092095;28;41875;-79
2022/11/17 14:11:52;;;;;;;2.10;1.07;;;;;;;14.28;71.33;96923.72;5091977;28;43688;-78
2022/11/17 14:14:26;;;;;;;3.63;1.33;;;;;;;14.09;72.31;96924.91;5107574;28;43307;-78
2022/11/17 14:16:54;;;;;;;2.53;1.20;;;;;;;13.86;72.99;96918.50;5122196;27;40674;-78
2022/11/17 14:19:31;;;;;;;2.03;1.20;;;;;;;13.72;73.34;96912.03;5073731;28;41891;-77
2022/11/17 14:22:02;;;;;;;2.33;1.20;;;;;;;13.66;73.75;96929.47;5088382;28;42681;-78
2022/11/17 14:24:30;;;;;;;2.40;1.23;;;;;;;13.57;74.41;96919.81;5090661;28;42795;-78
2022/11/17 14:26:58;;;;;;;6.00;2.50;;;;;;;13.51;74.42;96919.59;5073483;28;39057;-78
2022/11/17 14:29:26;;;;;;;2.77;1.63;;;;;;;13.43;74.38;96924.91;5124874;27;41706;-79
2022/11/17 14:31:54;;;;;;;3.87;1.20;;;;;;;13.40;74.54;96926.03;5090525;28;42924;-78
2022/11/17 14:34:22;;;;;;;1.90;1.00;;;;;;;13.37;75.22;96933.50;5073180;28;42273;-78
2022/11/17 14:36:53;;;;;;;3.83;1.00;;;;;;;13.23;74.76;96917.16;5091011;28;39974;-78
2022/11/17 14:39:22;;;;;;;3.43;1.97;;;;;;;13.27;74.99;96937.13;5089331;28;42781;-78
2022/11/17 14:41:51;;;;;;;3.37;1.30;;;;;;;13.22;75.11;96931.47;5111118;28;41914;-77
2022/11/17 14:44:18;;;;;;;4.63;2.00;;;;;;;13.19;74.99;96936.25;5094107;28;43206;-78
2022/11/17 14:46:46;;;;;;;4.63;2.30;;;;;;;13.12;76.44;96925.38;5077347;28;39067;-78
2022/11/17 14:49:14;;;;;;;6.50;2.77;;;;;;;13.06;78.68;96938.47;5127923;27;41678;-80
2022/11/17 14:51:41;;;;;;;6.47;3.10;;;;;;;12.86;80.80;96928.06;5094049;28;42258;-80
2022/11/17 14:54:10;;;;;;;9.43;4.30;;;;;;;12.80;81.44;96917.25;5094896;28;43406;-81
2022/11/17 14:56:38;;;;;;;5.80;1.90;;;;;;;12.70;80.35;96908.56;5094109;28;39861;-79
2022/11/17 14:59:05;;;;;;;3.27;1.60;;;;;;;12.62;80.88;96945.66;5094000;28;42202;-77
2022/11/17 15:01:37;;;;;;;3.63;1.60;;;;;;;12.55;80.59;96943.63;5093858;28;42546;-77
2022/11/17 15:04:06;;;;;;;4.43;1.53;;;;;;;12.46;80.81;96965.81;5127728;27;42699;-77
2022/11/17 15:06:33;;;;;;;2.23;1.63;;;;;;;12.36;81.04;96969.53;5093837;28;40973;-77
2022/11/17 15:09:04;;;;;;;5.37;1.30;;;;;;;12.23;80.67;96954.00;5094641;28;42714;-78
2022/11/17 15:11:33;;;;;;;2.70;1.17;;;;;;;12.01;80.92;96935.88;5090560;28;43796;-77
2022/11/17 15:14:02;;;;;;;2.53;1.10;;;;;;;12.11;80.73;96968.50;5093249;28;42517;-78
2022/11/17 15:16:29;;;;;;;2.57;1.27;;;;;;;12.06;80.54;96973.41;5093571;28;40104;-78
2022/11/17 15:18:57;;;;;;;3.83;1.77;;;;;;;12.03;80.56;96963.09;5093239;28;42121;-78
2022/11/17 15:21:25;;;;;;;2.53;1.23;;;;;;;11.97;80.46;96966.34;5110302;28;43107;-78
2022/11/17 15:23:52;;;;;;;2.63;1.47;;;;;;;11.93;80.55;96967.63;5093010;28;43638;-78
2022/11/17 15:26:22;;;;;;;3.93;1.70;;;;;;;11.90;80.74;96970.56;5127657;27;40733;-78
2022/11/17 15:28:51;;;;;;;2.90;1.50;;;;;;;11.79;81.07;96963.69;5092527;28;40910;-77
2022/11/17 15:31:19;;;;;;;3.10;2.03;;;;;;;11.75;81.40;96960.47;5094284;28;43835;-79
2022/11/17 15:33:48;;;;;;;3.33;1.93;;;;;;;11.71;82.27;96968.88;5109922;28;42726;-77
2022/11/17 15:36:17;;;;;;;5.57;1.60;;;;;;;11.66;82.07;96965.81;5075919;28;39646;-77
2022/11/17 15:38:46;;;;;;;4.40;2.40;;;;;;;11.65;82.48;96974.75;5075903;28;41798;-78
2022/11/17 15:41:15;;;;;;;5.40;2.00;;;;;;;11.65;82.11;96980.06;5075901;28;41602;-77
2022/11/17 15:43:43;;;;;;;3.67;2.10;;;;;;;11.67;82.46;96981.56;5092881;28;41482;-77
2022/11/17 15:46:14;;;;;;;4.13;1.83;;;;;;;11.68;81.89;96980.59;5076097;28;38836;-78
2022/11/17 15:48:44;;;;;;;4.03;2.10;;;;;;;11.71;81.58;96988.25;5092819;28;43259;-78
2022/11/17 15:51:13;;;;;;;4.37;2.40;;;;;;;11.70;82.71;96965.38;5075668;28;43913;-78
2022/11/17 15:53:42;;;;;;;5.03;2.50;;;;;;;11.67;84.51;96952.41;5126744;27;42475;-78
2022/11/17 15:56:12;;;;;;;5.27;3.07;;;;;;;11.64;84.36;96958.00;5109765;28;38886;-77
2022/11/17 15:58:41;;;;;;;7.30;3.17;;;;;;;11.56;85.77;96943.84;5092523;28;41699;-77
2022/11/17 16:01:15;;;;;;;6.77;3.70;;;;;;;11.57;85.55;96962.25;5075781;28;41780;-77
2022/11/17 16:03:44;;;;;;;6.37;3.70;;;;;;;11.56;84.98;96965.03;5109269;28;41308;-78
2022/11/17 16:06:12;;;;;;;5.43;2.90;;;;;;;11.51;85.30;96973.44;5092341;28;38943;-78
2022/11/17 16:08:41;;;;;;;5.23;1.97;;;;;;;11.48;85.09;96979.03;5126278;27;41749;-78
2022/11/17 16:11:10;;;;;;;3.80;1.70;;;;;;;11.46;84.85;96970.41;5126341;27;43363;-77
2022/11/17 16:13:37;;;;;;;2.43;1.40;;;;;;;11.36;84.53;96953.72;5092096;28;41223;-77
2022/11/17 16:16:06;;;;;;;2.37;1.30;;;;;;;11.39;85.21;96970.13;5092236;28;39944;-77
2022/11/17 16:18:37;;;;;;;2.23;1.33;;;;;;;11.33;85.07;96976.03;5092982;28;41791;-77
2022/11/17 16:21:07;;;;;;;1.73;1.17;;;;;;;11.39;85.14;97001.09;5075249;28;43465;-77
2022/11/17 16:23:38;;;;;;;1.83;1.43;;;;;;;11.36;85.36;96998.78;5092864;28;41748;-78
2022/11/17 16:26:06;;;;;;;1.80;1.27;;;;;;;11.36;84.75;96994.31;5075064;28;40159;-77
2022/11/17 16:28:33;;;;;;;1.43;1.30;;;;;;;11.34;84.47;96995.44;5074379;28;41873;-77
2022/11/17 16:31:13;;;;;;;1.40;0.90;;;;;;;11.34;84.63;96996.25;5108954;28;41495;-78
2022/11/17 16:33:47;;;;;;;1.90;1.40;;;;;;;11.29;85.26;97005.63;5091471;28;43128;-77
2022/11/17 16:36:14;;;;;;;4.10;2.00;;;;;;;11.32;84.72;97013.28;5123110;27;40017;-78
2022/11/17 16:38:42;;;;;;;4.13;2.27;;;;;;;11.32;84.45;97011.47;5125751;27;41579;-77
2022/11/17 16:41:09;;;;;;;4.40;2.30;;;;;;;11.32;84.20;96989.44;5092676;28;42805;-77
2022/11/17 16:43:37;;;;;;;6.47;2.00;;;;;;;11.32;84.38;96973.53;5092917;28;41298;-77
2022/11/17 16:46:17;;;;;;;3.07;1.10;;;;;;;11.30;84.18;96962.25;5126041;27;40932;-77
2022/11/17 16:48:46;;;;;;;2.20;1.30;;;;;;;11.26;84.24;96953.75;5108087;28;40868;-77
2022/11/17 16:51:15;;;;;;;2.97;1.03;;;;;;;11.24;84.42;96965.50;5091372;28;43575;-77
2022/11/17 16:53:43;;;;;;;1.70;1.37;;;;;;;11.27;83.95;96978.44;5073973;28;42599;-77
2022/11/17 16:56:12;;;;;;;2.70;1.53;;;;;;;11.29;83.74;96968.53;5092767;28;39942;-78
2022/11/17 16:58:39;;;;;;;2.33;1.63;;;;;;;11.15;83.91;96940.69;5091266;28;42215;-77
2022/11/17 17:01:12;;;;;;;2.57;1.47;;;;;;;11.31;83.86;96974.50;5091605;28;41964;-77
2022/11/17 17:03:43;;;;;;;1.37;1.20;;;;;;;10.95;83.40;96924.06;5090314;28;42930;-77
2022/11/17 17:06:15;;;;;;;3.50;1.60;;;;;;;11.35;83.51;96983.84;5074722;28;39246;-77
2022/11/17 17:08:43;;;;;;;2.90;1.33;;;;;;;11.36;83.07;96980.22;5074209;28;40490;-77
2022/11/17 17:11:12;;;;;;;2.80;1.50;;;;;;;11.36;83.30;96986.34;5108220;28;43126;-77
2022/11/17 17:13:40;;;;;;;3.67;1.93;;;;;;;11.35;83.36;97005.06;5092243;28;42319;-78
2022/11/17 17:16:09;;;;;;;3.00;1.97;;;;;;;11.35;83.27;97007.69;5092307;28;40892;-81
2022/11/17 17:18:37;;;;;;;4.57;2.10;;;;;;;11.29;84.15;97016.22;5092640;28;41904;-78
